createdAt,value
2016-11-30T00:01:26.673Z,1027.99
2016-11-30T00:02:08.351Z,1027.99
2016-11-30T00:02:50.118Z,1028.01
2016-11-30T00:03:31.812Z,1027.99
2016-11-30T00:05:31.892Z,1027.99
2016-11-30T00:06:13.654Z,1027.93
2016-11-30T00:06:55.414Z,1027.99
2016-11-30T00:07:37.109Z,1028.02
2016-11-30T00:08:18.883Z,1028.04
2016-11-30T00:09:00.632Z,1028.01
2016-11-30T00:09:42.372Z,1028.04
2016-11-30T00:10:24.136Z,1028.02
2016-11-30T00:11:05.791Z,1028.03
2016-11-30T00:11:47.524Z,1028.03
2016-11-30T00:12:29.258Z,1028.04
2016-11-30T00:13:11.034Z,1028.04
2016-11-30T00:13:52.765Z,1028.07
2016-11-30T00:14:34.496Z,1028.1
2016-11-30T00:15:16.241Z,1028.16
2016-11-30T00:15:57.981Z,1028.15
2016-11-30T00:16:39.726Z,1028.13
2016-11-30T00:17:21.471Z,1028.14
2016-11-30T00:18:03.216Z,1028.12
2016-11-30T00:20:03.332Z,1028.09
2016-11-30T00:20:44.986Z,1028.06
2016-11-30T00:21:26.740Z,1028.08
2016-11-30T00:22:08.521Z,1028.05
2016-11-30T00:22:50.247Z,1028.06
2016-11-30T00:23:31.978Z,1028.05
2016-11-30T00:25:31.996Z,1028.07
2016-11-30T00:26:13.676Z,1028.04
2016-11-30T00:28:08.401Z,1028.05
2016-11-30T00:28:50.182Z,1028.08
2016-11-30T00:29:31.920Z,1028.07
2016-11-30T00:30:13.684Z,1028.09
2016-11-30T00:30:55.458Z,1028.1
2016-11-30T00:31:37.210Z,1028.09
2016-11-30T00:32:18.941Z,1028.12
2016-11-30T00:33:00.684Z,1028.09
2016-11-30T00:33:42.455Z,1028.09
2016-11-30T00:34:24.224Z,1028.1
2016-11-30T00:35:05.945Z,1028.11
2016-11-30T00:37:21.342Z,1028.08
2016-11-30T00:38:02.991Z,1028.14
2016-11-30T00:38:44.713Z,1028.12
2016-11-30T00:40:39.454Z,1028.13
2016-11-30T00:41:21.201Z,1028.08
2016-11-30T00:42:02.960Z,1028.09
2016-11-30T00:42:44.732Z,1028.11
2016-11-30T00:43:26.462Z,1028.06
2016-11-30T00:44:08.017Z,1028.03
2016-11-30T00:46:02.754Z,1028.04
2016-11-30T00:46:44.537Z,1028.02
2016-11-30T00:47:26.326Z,1028
2016-11-30T00:51:25.781Z,1028.01
2016-11-30T00:52:07.495Z,1027.93
2016-11-30T00:52:49.235Z,1027.89
2016-11-30T00:53:30.890Z,1027.89
2016-11-30T00:54:12.591Z,1027.84
2016-11-30T00:54:54.353Z,1027.84
2016-11-30T00:55:36.123Z,1027.86
2016-11-30T00:56:17.868Z,1027.81
2016-11-30T00:56:59.577Z,1027.84
2016-11-30T00:57:41.205Z,1027.84
2016-11-30T01:00:12.231Z,1027.75
2016-11-30T01:02:06.959Z,1027.68
2016-11-30T01:02:48.660Z,1027.66
2016-11-30T01:03:30.245Z,1027.66
2016-11-30T01:04:11.966Z,1027.71
2016-11-30T01:04:53.561Z,1027.66
2016-11-30T01:05:35.153Z,1027.71
2016-11-30T01:08:06.151Z,1027.71
2016-11-30T01:08:47.870Z,1027.74
2016-11-30T01:11:08.394Z,1027.65
2016-11-30T01:11:50.172Z,1027.65
2016-11-30T01:12:31.911Z,1027.64
2016-11-30T01:14:26.755Z,1027.57
2016-11-30T01:15:08.499Z,1027.5
2016-11-30T01:15:50.180Z,1027.48
2016-11-30T01:16:31.977Z,1027.41
2016-11-30T01:17:13.706Z,1027.37
2016-11-30T01:17:55.355Z,1027.36
2016-11-30T01:18:37.077Z,1027.35
2016-11-30T01:19:18.871Z,1027.38
2016-11-30T01:20:00.621Z,1027.41
2016-11-30T01:22:00.762Z,1027.46
2016-11-30T01:24:31.792Z,1027.47
2016-11-30T01:25:13.504Z,1027.46
2016-11-30T01:25:55.244Z,1027.5
2016-11-30T01:26:36.901Z,1027.57
2016-11-30T01:27:18.591Z,1027.52
2016-11-30T01:28:00.331Z,1027.53
2016-11-30T01:28:42.030Z,1027.62
2016-11-30T01:29:23.838Z,1027.65
2016-11-30T01:30:05.595Z,1027.69
2016-11-30T01:30:47.360Z,1027.75
2016-11-30T01:33:02.770Z,1027.88
2016-11-30T01:33:44.374Z,1027.88
2016-11-30T01:34:26.201Z,1027.9
2016-11-30T01:35:07.673Z,1027.91
2016-11-30T01:35:49.361Z,1027.89
2016-11-30T01:36:31.154Z,1027.87
2016-11-30T01:37:12.826Z,1027.83
2016-11-30T01:39:07.540Z,1027.73
2016-11-30T01:39:49.293Z,1027.73
2016-11-30T01:40:30.937Z,1027.68
2016-11-30T01:41:12.650Z,1027.64
2016-11-30T01:41:54.438Z,1027.6
2016-11-30T01:44:09.820Z,1027.53
2016-11-30T01:44:51.587Z,1027.47
2016-11-30T01:45:33.338Z,1027.48
2016-11-30T01:47:48.712Z,1027.34
2016-11-30T01:48:30.465Z,1027.31
2016-11-30T01:49:12.088Z,1027.31
2016-11-30T01:49:53.835Z,1027.26
2016-11-30T01:50:35.516Z,1027.27
2016-11-30T01:51:17.224Z,1027.27
2016-11-30T01:51:59.046Z,1027.24
2016-11-30T01:52:40.796Z,1027.25
2016-11-30T01:53:22.527Z,1027.22
2016-11-30T01:54:04.208Z,1027.2
2016-11-30T01:54:45.971Z,1027.2
2016-11-30T01:57:06.572Z,1027.3
2016-11-30T01:57:48.279Z,1027.33
2016-11-30T01:58:29.863Z,1027.35
2016-11-30T01:59:11.091Z,1027.33
2016-11-30T01:59:51.622Z,1027.34
2016-11-30T02:00:32.159Z,1027.35
2016-11-30T02:01:12.699Z,1027.32
2016-11-30T02:01:53.235Z,1027.33
2016-11-30T02:02:33.764Z,1027.35
2016-11-30T02:03:14.298Z,1027.35
2016-11-30T02:03:54.831Z,1027.39
2016-11-30T02:04:35.414Z,1027.43
2016-11-30T02:05:15.946Z,1027.45
2016-11-30T02:05:56.479Z,1027.43
2016-11-30T02:06:37.010Z,1027.43
2016-11-30T02:07:17.587Z,1027.43
2016-11-30T02:07:58.285Z,1027.35
2016-11-30T02:08:38.816Z,1027.35
2016-11-30T02:09:19.356Z,1027.36
2016-11-30T02:09:59.889Z,1027.29
2016-11-30T02:10:40.424Z,1027.3
2016-11-30T02:11:20.965Z,1027.32
2016-11-30T02:12:01.499Z,1027.38
2016-11-30T02:12:42.040Z,1027.36
2016-11-30T02:13:22.568Z,1027.37
2016-11-30T02:14:03.096Z,1027.38
2016-11-30T02:14:43.640Z,1027.35
2016-11-30T02:15:24.176Z,1027.35
2016-11-30T02:16:04.709Z,1027.29
2016-11-30T02:16:45.244Z,1027.24
2016-11-30T02:17:25.774Z,1027.22
2016-11-30T02:18:06.300Z,1027.21
2016-11-30T02:18:46.842Z,1027.19
2016-11-30T02:19:27.379Z,1027.14
2016-11-30T02:20:07.910Z,1027.13
2016-11-30T02:20:48.431Z,1027.07
2016-11-30T02:21:28.966Z,1027.05
2016-11-30T02:22:09.499Z,1027
2016-11-30T02:22:50.035Z,1026.98
2016-11-30T02:23:30.570Z,1026.95
2016-11-30T02:24:11.109Z,1026.9
2016-11-30T02:24:51.638Z,1026.91
2016-11-30T02:25:32.179Z,1026.88
2016-11-30T02:26:12.714Z,1026.86
2016-11-30T02:26:53.251Z,1026.82
2016-11-30T02:27:33.791Z,1026.83
2016-11-30T02:28:14.334Z,1026.88
2016-11-30T02:28:54.913Z,1026.85
2016-11-30T02:29:35.438Z,1026.89
2016-11-30T02:30:15.971Z,1026.89
2016-11-30T02:30:56.496Z,1026.88
2016-11-30T02:31:37.040Z,1026.85
2016-11-30T02:32:17.570Z,1026.83
2016-11-30T02:32:58.111Z,1026.83
2016-11-30T02:33:38.653Z,1026.85
2016-11-30T02:34:19.188Z,1026.85
2016-11-30T02:34:59.723Z,1026.87
2016-11-30T02:35:40.259Z,1026.9
2016-11-30T02:36:20.791Z,1026.93
2016-11-30T02:37:01.325Z,1026.94
2016-11-30T02:37:41.858Z,1027
2016-11-30T02:38:22.396Z,1027.05
2016-11-30T02:39:02.932Z,1027.1
2016-11-30T02:39:43.468Z,1027.16
2016-11-30T02:40:23.998Z,1027.22
2016-11-30T02:41:04.526Z,1027.19
2016-11-30T02:41:45.063Z,1027.21
2016-11-30T02:42:25.607Z,1027.23
2016-11-30T02:43:06.142Z,1027.24
2016-11-30T02:43:46.678Z,1027.19
2016-11-30T02:44:27.205Z,1027.2
2016-11-30T02:45:07.743Z,1027.21
2016-11-30T02:45:48.286Z,1027.21
2016-11-30T02:46:28.811Z,1027.23
2016-11-30T02:47:09.349Z,1027.29
2016-11-30T02:47:49.888Z,1027.34
2016-11-30T02:48:30.412Z,1027.36
2016-11-30T02:49:10.932Z,1027.42
2016-11-30T02:49:51.469Z,1027.43
2016-11-30T02:50:32.003Z,1027.41
2016-11-30T02:51:12.541Z,1027.41
2016-11-30T02:51:53.077Z,1027.36
2016-11-30T02:52:33.606Z,1027.36
2016-11-30T02:53:14.135Z,1027.41
2016-11-30T02:53:54.676Z,1027.46
2016-11-30T02:54:35.219Z,1027.43
2016-11-30T02:55:15.755Z,1027.44
2016-11-30T02:55:56.365Z,1027.45
2016-11-30T02:56:36.901Z,1027.46
2016-11-30T02:57:17.439Z,1027.45
2016-11-30T02:57:57.971Z,1027.42
2016-11-30T02:58:38.508Z,1027.45
2016-11-30T02:59:19.042Z,1027.46
2016-11-30T02:59:59.581Z,1027.47
2016-11-30T03:00:40.115Z,1027.46
2016-11-30T03:01:20.649Z,1027.41
2016-11-30T03:02:01.178Z,1027.44
2016-11-30T03:02:41.714Z,1027.41
2016-11-30T03:03:22.250Z,1027.41
2016-11-30T03:04:02.791Z,1027.4
2016-11-30T03:04:43.324Z,1027.4
2016-11-30T03:05:23.859Z,1027.41
2016-11-30T03:06:04.396Z,1027.47
2016-11-30T03:06:44.927Z,1027.48
2016-11-30T03:07:25.461Z,1027.45
2016-11-30T03:08:05.996Z,1027.5
2016-11-30T03:08:46.533Z,1027.52
2016-11-30T03:09:27.060Z,1027.53
2016-11-30T03:10:07.625Z,1027.61
2016-11-30T03:10:48.167Z,1027.6
2016-11-30T03:11:28.701Z,1027.61
2016-11-30T03:12:09.232Z,1027.62
2016-11-30T03:12:49.771Z,1027.58
2016-11-30T03:13:30.303Z,1027.6
2016-11-30T03:14:10.840Z,1027.58
2016-11-30T03:14:51.370Z,1027.6
2016-11-30T03:15:31.904Z,1027.55
2016-11-30T03:16:12.436Z,1027.55
2016-11-30T03:16:52.972Z,1027.56
2016-11-30T03:17:33.513Z,1027.59
2016-11-30T03:18:14.051Z,1027.61
2016-11-30T03:18:54.579Z,1027.62
2016-11-30T03:19:35.111Z,1027.62
2016-11-30T03:20:15.648Z,1027.63
2016-11-30T03:20:56.190Z,1027.63
2016-11-30T03:21:36.728Z,1027.64
2016-11-30T03:22:17.272Z,1027.65
2016-11-30T03:22:57.808Z,1027.65
2016-11-30T03:23:38.343Z,1027.66
2016-11-30T03:24:18.880Z,1027.64
2016-11-30T03:24:59.411Z,1027.58
2016-11-30T03:25:39.952Z,1027.61
2016-11-30T03:26:20.498Z,1027.58
2016-11-30T03:27:01.028Z,1027.57
2016-11-30T03:27:41.563Z,1027.54
2016-11-30T03:28:22.087Z,1027.56
2016-11-30T03:29:02.625Z,1027.56
2016-11-30T03:29:43.164Z,1027.57
2016-11-30T03:30:23.697Z,1027.52
2016-11-30T03:31:04.219Z,1027.53
2016-11-30T03:31:44.759Z,1027.49
2016-11-30T03:32:25.291Z,1027.44
2016-11-30T03:33:05.831Z,1027.41
2016-11-30T03:33:46.389Z,1027.41
2016-11-30T03:34:26.901Z,1027.4
2016-11-30T03:35:07.438Z,1027.35
2016-11-30T03:35:47.976Z,1027.41
2016-11-30T03:36:28.511Z,1027.4
2016-11-30T03:37:09.042Z,1027.4
2016-11-30T03:37:49.570Z,1027.38
2016-11-30T03:38:30.100Z,1027.38
2016-11-30T03:39:10.638Z,1027.42
2016-11-30T03:39:51.244Z,1027.43
2016-11-30T03:40:31.782Z,1027.44
2016-11-30T03:41:12.318Z,1027.45
2016-11-30T03:41:52.858Z,1027.41
2016-11-30T03:42:33.391Z,1027.4
2016-11-30T03:43:13.931Z,1027.36
2016-11-30T03:43:54.688Z,1027.34
2016-11-30T03:44:35.270Z,1027.33
2016-11-30T03:45:15.808Z,1027.38
2016-11-30T03:45:56.342Z,1027.36
2016-11-30T03:46:36.865Z,1027.38
2016-11-30T03:47:17.410Z,1027.36
2016-11-30T03:47:57.939Z,1027.37
2016-11-30T03:48:38.474Z,1027.33
2016-11-30T03:49:19.011Z,1027.35
2016-11-30T03:49:59.554Z,1027.36
2016-11-30T03:50:40.093Z,1027.37
2016-11-30T03:51:20.634Z,1027.35
2016-11-30T03:52:01.159Z,1027.39
2016-11-30T03:52:41.689Z,1027.4
2016-11-30T03:53:22.225Z,1027.41
2016-11-30T03:54:02.785Z,1027.4
2016-11-30T03:54:43.321Z,1027.37
2016-11-30T03:55:23.859Z,1027.35
2016-11-30T03:56:04.391Z,1027.38
2016-11-30T03:56:44.916Z,1027.36
2016-11-30T03:57:25.444Z,1027.37
2016-11-30T03:58:05.981Z,1027.35
2016-11-30T03:58:46.516Z,1027.3
2016-11-30T03:59:27.048Z,1027.3
2016-11-30T04:00:07.568Z,1027.3
2016-11-30T04:00:48.096Z,1027.27
2016-11-30T04:01:28.633Z,1027.28
2016-11-30T04:02:09.177Z,1027.25
2016-11-30T04:02:49.712Z,1027.26
2016-11-30T04:03:30.253Z,1027.26
2016-11-30T04:04:10.797Z,1027.21
2016-11-30T04:04:51.332Z,1027.22
2016-11-30T04:05:31.868Z,1027.2
2016-11-30T04:06:12.465Z,1027.22
2016-11-30T04:06:52.999Z,1027.26
2016-11-30T04:07:33.531Z,1027.26
2016-11-30T04:08:14.065Z,1027.3
2016-11-30T04:08:54.603Z,1027.29
2016-11-30T04:09:35.139Z,1027.28
2016-11-30T04:10:15.662Z,1027.24
2016-11-30T04:10:56.203Z,1027.27
2016-11-30T04:11:36.728Z,1027.28
2016-11-30T04:12:17.266Z,1027.26
2016-11-30T04:12:57.805Z,1027.33
2016-11-30T04:13:38.342Z,1027.32
2016-11-30T04:14:18.878Z,1027.33
2016-11-30T04:14:59.413Z,1027.3
2016-11-30T04:15:39.951Z,1027.35
2016-11-30T04:16:20.468Z,1027.35
2016-11-30T04:17:01.001Z,1027.3
2016-11-30T04:17:41.536Z,1027.32
2016-11-30T04:18:22.076Z,1027.35
2016-11-30T04:19:02.618Z,1027.38
2016-11-30T04:19:43.147Z,1027.37
2016-11-30T04:20:23.679Z,1027.36
2016-11-30T04:21:04.202Z,1027.39
2016-11-30T04:21:44.739Z,1027.41
2016-11-30T04:22:25.277Z,1027.37
2016-11-30T04:23:05.809Z,1027.35
2016-11-30T04:23:46.336Z,1027.38
2016-11-30T04:24:26.872Z,1027.38
2016-11-30T04:25:07.414Z,1027.38
2016-11-30T04:25:47.952Z,1027.39
2016-11-30T04:26:28.484Z,1027.4
2016-11-30T04:27:09.022Z,1027.4
2016-11-30T04:27:49.558Z,1027.37
2016-11-30T04:28:30.078Z,1027.35
2016-11-30T04:29:10.613Z,1027.37
2016-11-30T04:29:51.148Z,1027.37
2016-11-30T04:30:31.682Z,1027.35
2016-11-30T04:31:12.217Z,1027.36
2016-11-30T04:31:52.740Z,1027.36
2016-11-30T04:32:33.278Z,1027.4
2016-11-30T04:33:13.811Z,1027.42
2016-11-30T04:33:54.348Z,1027.4
2016-11-30T04:34:34.886Z,1027.4
2016-11-30T04:35:15.418Z,1027.4
2016-11-30T04:35:55.946Z,1027.41
2016-11-30T04:36:36.483Z,1027.43
2016-11-30T04:37:17.023Z,1027.46
2016-11-30T04:37:57.554Z,1027.46
2016-11-30T04:38:38.091Z,1027.52
2016-11-30T04:39:18.629Z,1027.53
2016-11-30T04:39:59.152Z,1027.51
2016-11-30T04:40:39.736Z,1027.5
2016-11-30T04:41:20.271Z,1027.48
2016-11-30T04:42:00.800Z,1027.51
2016-11-30T04:42:41.352Z,1027.56
2016-11-30T04:43:21.879Z,1027.54
2016-11-30T04:44:02.413Z,1027.6
2016-11-30T04:44:42.947Z,1027.66
2016-11-30T04:45:23.485Z,1027.66
2016-11-30T04:46:04.007Z,1027.69
2016-11-30T04:46:44.553Z,1027.69
2016-11-30T04:47:25.086Z,1027.7
2016-11-30T04:48:05.622Z,1027.77
2016-11-30T04:48:46.160Z,1027.82
2016-11-30T04:49:26.693Z,1027.78
2016-11-30T04:50:07.229Z,1027.83
2016-11-30T04:50:47.758Z,1027.83
2016-11-30T04:51:28.296Z,1027.81
2016-11-30T04:52:08.832Z,1027.87
2016-11-30T04:52:49.371Z,1027.89
2016-11-30T04:53:29.907Z,1027.86
2016-11-30T04:54:10.446Z,1027.87
2016-11-30T04:54:50.972Z,1027.9
2016-11-30T04:55:31.505Z,1027.88
2016-11-30T04:56:12.035Z,1027.88
2016-11-30T04:56:52.575Z,1027.92
2016-11-30T04:57:33.117Z,1027.9
2016-11-30T04:58:13.655Z,1027.89
2016-11-30T04:58:54.195Z,1027.9
2016-11-30T04:59:34.735Z,1027.91
2016-11-30T05:00:15.263Z,1027.92
2016-11-30T05:00:55.800Z,1027.93
2016-11-30T05:01:36.340Z,1027.96
2016-11-30T05:02:16.892Z,1027.95
2016-11-30T05:02:57.444Z,1027.95
2016-11-30T05:03:37.972Z,1027.93
2016-11-30T05:04:18.508Z,1027.94
2016-11-30T05:04:59.043Z,1027.98
2016-11-30T05:05:39.587Z,1027.98
2016-11-30T05:06:20.116Z,1027.99
2016-11-30T05:07:00.647Z,1027.97
2016-11-30T05:07:41.181Z,1027.95
2016-11-30T05:08:21.718Z,1027.95
2016-11-30T05:09:02.256Z,1027.97
2016-11-30T05:09:42.792Z,1027.97
2016-11-30T05:10:23.328Z,1027.97
2016-11-30T05:11:03.875Z,1028.03
2016-11-30T05:11:44.419Z,1027.99
2016-11-30T05:12:24.957Z,1027.97
2016-11-30T05:13:05.490Z,1028
2016-11-30T05:13:46.029Z,1027.96
2016-11-30T05:14:26.564Z,1027.93
2016-11-30T05:15:07.107Z,1027.96
2016-11-30T05:15:47.645Z,1027.96
2016-11-30T05:16:28.180Z,1027.93
2016-11-30T05:17:08.710Z,1027.97
2016-11-30T05:17:49.246Z,1027.99
2016-11-30T05:18:29.784Z,1028
2016-11-30T05:19:10.320Z,1027.99
2016-11-30T05:19:50.853Z,1027.97
2016-11-30T05:20:31.388Z,1027.91
2016-11-30T05:21:11.923Z,1027.89
2016-11-30T05:21:52.453Z,1027.84
2016-11-30T05:22:32.986Z,1027.8
2016-11-30T05:23:13.527Z,1027.79
2016-11-30T05:23:54.066Z,1027.8
2016-11-30T05:24:34.604Z,1027.71
2016-11-30T05:25:15.142Z,1027.73
2016-11-30T05:25:55.671Z,1027.69
2016-11-30T05:26:36.208Z,1027.74
2016-11-30T05:27:16.739Z,1027.75
2016-11-30T05:27:57.276Z,1027.76
2016-11-30T05:28:37.818Z,1027.75
2016-11-30T05:29:18.356Z,1027.77
2016-11-30T05:29:58.881Z,1027.8
2016-11-30T05:30:39.413Z,1027.85
2016-11-30T05:31:19.947Z,1027.82
2016-11-30T05:32:00.483Z,1027.83
2016-11-30T05:32:41.010Z,1027.81
2016-11-30T05:33:21.536Z,1027.81
2016-11-30T05:34:02.066Z,1027.78
2016-11-30T05:34:42.603Z,1027.78
2016-11-30T05:35:23.143Z,1027.79
2016-11-30T05:36:03.682Z,1027.73
2016-11-30T05:36:44.208Z,1027.8
2016-11-30T05:37:24.739Z,1027.75
2016-11-30T05:38:05.267Z,1027.74
2016-11-30T05:38:45.795Z,1027.75
2016-11-30T05:39:26.338Z,1027.73
2016-11-30T05:40:06.867Z,1027.75
2016-11-30T05:40:47.392Z,1027.72
2016-11-30T05:41:27.928Z,1027.74
2016-11-30T05:42:08.462Z,1027.7
2016-11-30T05:42:48.997Z,1027.72
2016-11-30T05:43:29.533Z,1027.71
2016-11-30T05:44:10.070Z,1027.69
2016-11-30T05:44:50.610Z,1027.75
2016-11-30T05:45:31.134Z,1027.73
2016-11-30T05:46:11.655Z,1027.71
2016-11-30T05:46:52.187Z,1027.78
2016-11-30T05:47:32.730Z,1027.72
2016-11-30T05:48:13.254Z,1027.73
2016-11-30T05:48:53.786Z,1027.69
2016-11-30T05:49:34.324Z,1027.65
2016-11-30T05:50:14.856Z,1027.71
2016-11-30T05:50:55.391Z,1027.71
2016-11-30T05:51:35.936Z,1027.71
2016-11-30T05:52:16.509Z,1027.71
2016-11-30T05:52:57.050Z,1027.74
2016-11-30T05:53:37.585Z,1027.77
2016-11-30T05:54:18.124Z,1027.72
2016-11-30T05:54:58.642Z,1027.73
2016-11-30T05:55:39.181Z,1027.72
2016-11-30T05:56:19.713Z,1027.71
2016-11-30T05:57:00.247Z,1027.75
2016-11-30T05:57:40.787Z,1027.73
2016-11-30T05:58:21.325Z,1027.74
2016-11-30T05:59:01.852Z,1027.75
2016-11-30T05:59:42.388Z,1027.73
2016-11-30T06:00:22.922Z,1027.74
2016-11-30T06:01:03.462Z,1027.76
2016-11-30T06:01:44.001Z,1027.78
2016-11-30T06:02:24.539Z,1027.79
2016-11-30T06:03:05.077Z,1027.81
2016-11-30T06:03:45.598Z,1027.77
2016-11-30T06:04:26.133Z,1027.76
2016-11-30T06:05:06.672Z,1027.79
2016-11-30T06:05:47.215Z,1027.75
2016-11-30T06:06:27.752Z,1027.75
2016-11-30T06:07:08.285Z,1027.76
2016-11-30T06:07:48.810Z,1027.75
2016-11-30T06:08:29.351Z,1027.79
2016-11-30T06:09:09.873Z,1027.75
2016-11-30T06:09:50.411Z,1027.77
2016-11-30T06:10:30.946Z,1027.74
2016-11-30T06:11:11.503Z,1027.75
2016-11-30T06:11:52.035Z,1027.76
2016-11-30T06:12:32.572Z,1027.77
2016-11-30T06:13:13.108Z,1027.76
2016-11-30T06:13:53.640Z,1027.72
2016-11-30T06:14:34.171Z,1027.74
2016-11-30T06:15:14.705Z,1027.73
2016-11-30T06:15:55.241Z,1027.71
2016-11-30T06:16:35.768Z,1027.74
2016-11-30T06:17:16.304Z,1027.74
2016-11-30T06:17:56.841Z,1027.72
2016-11-30T06:18:37.378Z,1027.78
2016-11-30T06:19:17.911Z,1027.74
2016-11-30T06:19:58.443Z,1027.73
2016-11-30T06:20:38.969Z,1027.72
2016-11-30T06:21:19.509Z,1027.69
2016-11-30T06:22:00.031Z,1027.72
2016-11-30T06:22:40.570Z,1027.73
2016-11-30T06:23:21.106Z,1027.73
2016-11-30T06:24:01.641Z,1027.74
2016-11-30T06:24:42.171Z,1027.77
2016-11-30T06:25:22.707Z,1027.77
2016-11-30T06:26:03.240Z,1027.74
2016-11-30T06:26:43.769Z,1027.75
2016-11-30T06:27:24.307Z,1027.77
2016-11-30T06:28:04.845Z,1027.74
2016-11-30T06:28:45.384Z,1027.74
2016-11-30T06:29:25.915Z,1027.72
2016-11-30T06:30:06.454Z,1027.75
2016-11-30T06:30:46.994Z,1027.74
2016-11-30T06:31:27.526Z,1027.74
2016-11-30T06:32:08.062Z,1027.72
2016-11-30T06:32:48.596Z,1027.77
2016-11-30T06:33:29.129Z,1027.7
2016-11-30T06:34:09.658Z,1027.71
2016-11-30T06:34:50.197Z,1027.71
2016-11-30T06:35:30.735Z,1027.7
2016-11-30T06:36:11.273Z,1027.72
2016-11-30T06:36:51.814Z,1027.68
2016-11-30T06:37:32.350Z,1027.73
2016-11-30T06:38:12.885Z,1027.76
2016-11-30T06:38:53.411Z,1027.73
2016-11-30T06:39:33.958Z,1027.74
2016-11-30T06:40:14.496Z,1027.76
2016-11-30T06:40:55.028Z,1027.84
2016-11-30T06:41:35.569Z,1027.84
2016-11-30T06:42:16.105Z,1027.92
2016-11-30T06:42:56.634Z,1027.89
2016-11-30T06:43:37.173Z,1027.83
2016-11-30T06:44:17.713Z,1027.81
2016-11-30T06:44:58.242Z,1027.79
2016-11-30T06:45:38.780Z,1027.74
2016-11-30T06:46:19.320Z,1027.71
2016-11-30T06:46:59.849Z,1027.75
2016-11-30T06:47:40.384Z,1027.8
2016-11-30T06:48:20.914Z,1027.82
2016-11-30T06:49:01.448Z,1027.86
2016-11-30T06:49:41.983Z,1027.83
2016-11-30T06:50:22.524Z,1027.83
2016-11-30T06:51:03.063Z,1027.82
2016-11-30T06:51:43.595Z,1027.81
2016-11-30T06:52:24.180Z,1027.82
2016-11-30T06:53:04.727Z,1027.82
2016-11-30T06:53:45.248Z,1027.85
2016-11-30T06:54:25.785Z,1027.85
2016-11-30T06:55:06.321Z,1027.86
2016-11-30T06:55:46.849Z,1027.83
2016-11-30T06:56:27.387Z,1027.84
2016-11-30T06:57:07.924Z,1027.87
2016-11-30T06:57:48.456Z,1027.91
2016-11-30T06:58:28.988Z,1027.86
2016-11-30T06:59:09.526Z,1027.8
2016-11-30T06:59:50.057Z,1027.81
2016-11-30T07:00:30.593Z,1027.82
2016-11-30T07:01:11.131Z,1027.87
2016-11-30T07:01:51.658Z,1027.84
2016-11-30T07:02:32.194Z,1027.85
2016-11-30T07:03:12.737Z,1027.85
2016-11-30T07:03:53.256Z,1027.86
2016-11-30T07:04:33.794Z,1027.86
2016-11-30T07:05:14.334Z,1027.93
2016-11-30T07:05:54.868Z,1027.93
2016-11-30T07:06:35.401Z,1027.91
2016-11-30T07:07:15.946Z,1027.96
2016-11-30T07:07:56.482Z,1027.99
2016-11-30T07:10:25.949Z,1028.02
2016-11-30T07:11:06.488Z,1028.01
2016-11-30T07:11:47.007Z,1028
2016-11-30T07:12:27.536Z,1028.03
2016-11-30T07:13:08.079Z,1028.05
2016-11-30T07:13:48.617Z,1028.06
2016-11-30T07:14:29.154Z,1028.07
2016-11-30T07:15:09.697Z,1028.08
2016-11-30T07:15:50.235Z,1028.12
2016-11-30T07:16:30.801Z,1028.1
2016-11-30T07:17:11.330Z,1028.07
2016-11-30T07:17:51.857Z,1028.1
2016-11-30T07:18:32.390Z,1028.06
2016-11-30T07:19:12.925Z,1028.09
2016-11-30T07:19:53.464Z,1028.1
2016-11-30T07:20:33.995Z,1028.07
2016-11-30T07:21:14.511Z,1028.08
2016-11-30T07:21:55.037Z,1028.07
2016-11-30T07:22:35.571Z,1028.09
2016-11-30T07:23:16.108Z,1028.11
2016-11-30T07:23:56.640Z,1028.15
2016-11-30T07:24:37.165Z,1028.18
2016-11-30T07:25:17.704Z,1028.18
2016-11-30T07:25:58.224Z,1028.18
2016-11-30T07:26:38.764Z,1028.21
2016-11-30T07:27:19.294Z,1028.2
2016-11-30T07:27:59.818Z,1028.19
2016-11-30T07:28:40.388Z,1028.21
2016-11-30T07:29:20.952Z,1028.22
2016-11-30T07:30:01.482Z,1028.26
2016-11-30T07:30:42.017Z,1028.26
2016-11-30T07:31:22.536Z,1028.25
2016-11-30T07:32:03.069Z,1028.26
2016-11-30T07:32:43.609Z,1028.23
2016-11-30T07:33:24.135Z,1028.26
2016-11-30T07:34:04.655Z,1028.23
2016-11-30T07:34:45.186Z,1028.27
2016-11-30T07:35:25.721Z,1028.28
2016-11-30T07:36:06.259Z,1028.25
2016-11-30T07:36:46.803Z,1028.3
2016-11-30T07:37:27.336Z,1028.3
2016-11-30T07:38:07.870Z,1028.3
2016-11-30T07:38:48.403Z,1028.31
2016-11-30T07:39:28.934Z,1028.28
2016-11-30T07:40:09.472Z,1028.31
2016-11-30T07:40:50.010Z,1028.27
2016-11-30T07:41:30.547Z,1028.3
2016-11-30T07:42:11.080Z,1028.27
2016-11-30T07:42:51.607Z,1028.26
2016-11-30T07:43:32.147Z,1028.24
2016-11-30T07:44:12.691Z,1028.24
2016-11-30T07:44:53.267Z,1028.3
2016-11-30T07:45:33.796Z,1028.29
2016-11-30T07:46:14.334Z,1028.23
2016-11-30T07:46:54.807Z,1028.3
2016-11-30T07:47:35.342Z,1028.29
2016-11-30T07:48:15.878Z,1028.31
2016-11-30T07:48:56.415Z,1028.33
2016-11-30T07:49:36.946Z,1028.38
2016-11-30T07:50:17.473Z,1028.38
2016-11-30T07:50:58.024Z,1028.33
2016-11-30T07:51:38.555Z,1028.35
2016-11-30T07:52:19.097Z,1028.33
2016-11-30T07:52:59.629Z,1028.3
2016-11-30T07:53:40.169Z,1028.28
2016-11-30T07:54:20.709Z,1028.29
2016-11-30T07:55:01.237Z,1028.3
2016-11-30T07:55:41.766Z,1028.35
2016-11-30T07:56:22.307Z,1028.34
2016-11-30T07:57:02.846Z,1028.34
2016-11-30T07:57:43.385Z,1028.37
2016-11-30T07:58:23.923Z,1028.37
2016-11-30T07:59:04.451Z,1028.41
2016-11-30T07:59:44.988Z,1028.37
2016-11-30T08:00:25.519Z,1028.39
2016-11-30T08:01:06.053Z,1028.39
2016-11-30T08:01:46.579Z,1028.41
2016-11-30T08:02:27.129Z,1028.41
2016-11-30T08:03:07.666Z,1028.41
2016-11-30T08:03:48.191Z,1028.43
2016-11-30T08:04:28.726Z,1028.45
2016-11-30T08:05:09.256Z,1028.48
2016-11-30T08:05:49.793Z,1028.49
2016-11-30T08:06:30.328Z,1028.49
2016-11-30T08:07:10.847Z,1028.49
2016-11-30T08:07:51.374Z,1028.48
2016-11-30T08:08:31.916Z,1028.51
2016-11-30T08:09:12.454Z,1028.52
2016-11-30T08:09:52.995Z,1028.54
2016-11-30T08:10:33.532Z,1028.56
2016-11-30T08:11:14.071Z,1028.52
2016-11-30T08:11:54.597Z,1028.51
2016-11-30T08:12:35.118Z,1028.49
2016-11-30T08:13:15.660Z,1028.5
2016-11-30T08:13:56.193Z,1028.5
2016-11-30T08:14:36.725Z,1028.52
2016-11-30T08:15:17.250Z,1028.5
2016-11-30T08:15:57.781Z,1028.45
2016-11-30T08:16:38.308Z,1028.45
2016-11-30T08:17:18.841Z,1028.5
2016-11-30T08:17:59.386Z,1028.46
2016-11-30T08:18:39.914Z,1028.5
2016-11-30T08:19:20.450Z,1028.45
2016-11-30T08:20:00.973Z,1028.5
2016-11-30T08:20:41.507Z,1028.5
2016-11-30T08:21:22.047Z,1028.52
2016-11-30T08:22:02.578Z,1028.57
2016-11-30T08:22:43.104Z,1028.55
2016-11-30T08:23:23.633Z,1028.6
2016-11-30T08:24:04.165Z,1028.59
2016-11-30T08:24:44.701Z,1028.61
2016-11-30T08:25:25.235Z,1028.62
2016-11-30T08:26:05.758Z,1028.63
2016-11-30T08:26:46.298Z,1028.63
2016-11-30T08:27:26.836Z,1028.68
2016-11-30T08:28:07.370Z,1028.68
2016-11-30T08:28:47.898Z,1028.67
2016-11-30T08:29:28.435Z,1028.68
2016-11-30T08:30:08.971Z,1028.67
2016-11-30T08:30:49.502Z,1028.71
2016-11-30T08:31:30.031Z,1028.75
2016-11-30T08:32:10.572Z,1028.7
2016-11-30T08:32:51.123Z,1028.76
2016-11-30T08:33:31.661Z,1028.72
2016-11-30T08:34:12.201Z,1028.74
2016-11-30T08:34:52.737Z,1028.75
2016-11-30T08:35:33.264Z,1028.73
2016-11-30T08:36:13.806Z,1028.73
2016-11-30T08:36:54.324Z,1028.73
2016-11-30T08:37:34.852Z,1028.74
2016-11-30T08:38:15.391Z,1028.71
2016-11-30T08:38:55.915Z,1028.71
2016-11-30T08:39:36.446Z,1028.68
2016-11-30T08:40:16.979Z,1028.69
2016-11-30T08:40:57.549Z,1028.67
2016-11-30T08:41:38.091Z,1028.72
2016-11-30T08:42:18.628Z,1028.75
2016-11-30T08:42:59.160Z,1028.76
2016-11-30T08:43:39.692Z,1028.82
2016-11-30T08:44:20.220Z,1028.82
2016-11-30T08:45:00.751Z,1028.75
2016-11-30T08:45:41.283Z,1028.76
2016-11-30T08:46:21.823Z,1028.77
2016-11-30T08:47:02.358Z,1028.74
2016-11-30T08:47:42.877Z,1028.74
2016-11-30T08:48:23.421Z,1028.71